Time;durP1;ratioP1;P1;durP2;ratioP2;P2;SDS_P1;SDS_P2;PMS_P1;PMS_P2;Temp;Humidity;BMP_temperature;BMP_pressure;BME280_temperature;BME280_humidity;BME280_pressure;Samples;Min_cycle;Max_cycle;Signal;HPM_P1;HPM_P2
2023/03/21 00:01:28;;;;;;;40.83;18.02;;;;;;;;;;6266098;22;20129;-85
2023/03/21 00:03:54;;;;;;;38.53;17.65;;;;;;;;;;6261199;22;20536;-85
2023/03/21 00:06:21;;;;;;;34.13;15.75;;;;;;;;;;6237575;22;20062;-86
2023/03/21 00:08:48;;;;;;;34.17;16.05;;;;;;;;;;6264926;22;20052;-85
2023/03/21 00:11:15;;;;;;;35.55;17.35;;;;;;;;;;6265621;22;20467;-86
2023/03/21 00:13:42;;;;;;;37.08;16.40;;;;;;;;;;6235700;22;20204;-85
2023/03/21 00:16:16;;;;;;;29.00;13.82;;;;;;;;;;6265040;22;20107;-86
2023/03/21 00:18:54;;;;;;;28.73;14.15;;;;;;;;;;6265298;22;20067;-86
2023/03/21 00:21:21;;;;;;;32.60;13.95;;;;;;;;;;6237539;22;20059;-85
2023/03/21 00:24:07;;;;;;;32.13;14.20;;;;;;;;;;6263321;22;20040;-85
2023/03/21 00:26:34;;;;;;;34.35;15.07;;;;;;;;;;6265330;22;20451;-86
2023/03/21 00:29:00;;;;;;;29.88;14.63;;;;;;;;;;6238872;22;20024;-84
2023/03/21 00:31:27;;;;;;;30.52;13.75;;;;;;;;;;6265865;22;20024;-85
2023/03/21 00:33:53;;;;;;;30.77;14.20;;;;;;;;;;6265830;22;20032;-85
2023/03/21 00:36:20;;;;;;;27.63;13.02;;;;;;;;;;6267389;22;20050;-85
2023/03/21 00:38:47;;;;;;;29.05;13.00;;;;;;;;;;6240460;22;20043;-86
2023/03/21 00:41:13;;;;;;;28.23;13.65;;;;;;;;;;6267341;22;20135;-85
2023/03/21 00:44:00;;;;;;;31.10;13.75;;;;;;;;;;6266748;22;20024;-85
2023/03/21 00:46:26;;;;;;;30.48;14.43;;;;;;;;;;6267261;22;20123;-85
2023/03/21 00:49:07;;;;;;;27.65;13.43;;;;;;;;;;6267961;22;20705;-85
2023/03/21 00:51:34;;;;;;;33.35;14.63;;;;;;;;;;6267281;22;20380;-84
2023/03/21 00:54:00;;;;;;;34.72;15.32;;;;;;;;;;6238544;22;20506;-84
2023/03/21 00:56:27;;;;;;;36.78;15.10;;;;;;;;;;6266594;22;20373;-85
2023/03/21 00:58:53;;;;;;;34.05;15.50;;;;;;;;;;6267061;22;20036;-85
2023/03/21 01:01:19;;;;;;;32.53;15.32;;;;;;;;;;6267167;22;20458;-85
2023/03/21 01:03:49;;;;;;;34.72;15.68;;;;;;;;;;6266047;22;20392;-85
2023/03/21 01:06:18;;;;;;;39.13;16.20;;;;;;;;;;6239978;22;20047;-85
2023/03/21 01:08:45;;;;;;;38.42;15.93;;;;;;;;;;6267310;22;20025;-85
2023/03/21 01:11:26;;;;;;;41.58;17.08;;;;;;;;;;6267333;22;20032;-84
2023/03/21 01:13:53;;;;;;;43.53;18.13;;;;;;;;;;6265968;22;20028;-85
2023/03/21 01:16:40;;;;;;;38.08;16.77;;;;;;;;;;6267159;22;20024;-85
2023/03/21 01:19:07;;;;;;;45.03;19.88;;;;;;;;;;6267406;22;20107;-85
2023/03/21 01:21:43;;;;;;;51.90;19.83;;;;;;;;;;6266394;22;20043;-84
2023/03/21 01:24:10;;;;;;;48.67;20.20;;;;;;;;;;6265348;22;20028;-85
2023/03/21 01:26:36;;;;;;;51.25;20.80;;;;;;;;;;6246495;22;20032;-84
2023/03/21 01:29:03;;;;;;;53.78;21.00;;;;;;;;;;6266645;22;20024;-85
2023/03/21 01:31:30;;;;;;;46.97;19.88;;;;;;;;;;6267068;22;20082;-84
2023/03/21 01:33:56;;;;;;;52.78;22.10;;;;;;;;;;6265424;22;20075;-84
2023/03/21 01:36:24;;;;;;;51.33;22.55;;;;;;;;;;6264716;22;20024;-85
2023/03/21 01:38:52;;;;;;;59.15;23.75;;;;;;;;;;6266130;22;20444;-85
2023/03/21 01:41:29;;;;;;;64.63;23.63;;;;;;;;;;6265756;22;20126;-85
2023/03/21 01:44:13;;;;;;;57.97;21.75;;;;;;;;;;6262502;22;20110;-84
2023/03/21 01:46:41;;;;;;;60.70;23.30;;;;;;;;;;6266532;22;20888;-84
2023/03/21 01:49:33;;;;;;;58.28;23.27;;;;;;;;;;6267008;22;20024;-84
2023/03/21 01:52:02;;;;;;;60.97;23.58;;;;;;;;;;6264954;22;20028;-84
2023/03/21 01:54:40;;;;;;;65.68;23.52;;;;;;;;;;6266181;22;20522;-84
2023/03/21 01:57:17;;;;;;;63.88;24.52;;;;;;;;;;6266318;22;20099;-84
2023/03/21 01:59:49;;;;;;;66.43;24.58;;;;;;;;;;6267171;22;20039;-84
2023/03/21 02:02:22;;;;;;;60.25;25.30;;;;;;;;;;6266718;22;20024;-85
2023/03/21 02:04:50;;;;;;;54.05;22.88;;;;;;;;;;6265181;22;20462;-85
2023/03/21 02:07:24;;;;;;;55.60;22.35;;;;;;;;;;6269495;22;20770;-85
2023/03/21 02:09:51;;;;;;;62.95;25.20;;;;;;;;;;6274120;22;20116;-85
2023/03/21 02:12:17;;;;;;;59.97;23.48;;;;;;;;;;6274154;22;20027;-85
2023/03/21 02:14:45;;;;;;;55.55;21.10;;;;;;;;;;6270491;22;20524;-85
2023/03/21 02:17:32;;;;;;;61.95;24.42;;;;;;;;;;6274809;22;20771;-85
2023/03/21 02:20:02;;;;;;;60.90;22.17;;;;;;;;;;6273442;22;20086;-86
2023/03/21 02:22:47;;;;;;;47.27;20.90;;;;;;;;;;6275017;22;20024;-85
2023/03/21 02:25:19;;;;;;;62.75;22.00;;;;;;;;;;6275939;22;20020;-86
2023/03/21 02:28:10;;;;;;;58.92;21.67;;;;;;;;;;6273948;22;20039;-86
2023/03/21 02:30:42;;;;;;;56.75;21.13;;;;;;;;;;6277074;22;20047;-86
2023/03/21 02:33:40;;;;;;;53.75;21.90;;;;;;;;;;6249417;22;20024;-86
2023/03/21 02:36:06;;;;;;;57.28;21.45;;;;;;;;;;6275256;22;20038;-86
2023/03/21 02:38:59;;;;;;;52.28;21.08;;;;;;;;;;6275744;22;20090;-86
2023/03/21 02:41:44;;;;;;;59.67;21.80;;;;;;;;;;6271490;22;20915;-86
2023/03/21 02:44:23;;;;;;;53.50;20.48;;;;;;;;;;6242263;22;20098;-86
2023/03/21 02:46:56;;;;;;;52.15;21.70;;;;;;;;;;6271614;22;20035;-86
2023/03/21 02:49:51;;;;;;;64.60;21.63;;;;;;;;;;6273194;22;20013;-86
2023/03/21 02:52:19;;;;;;;48.28;21.55;;;;;;;;;;6274313;22;20035;-86
2023/03/21 02:55:03;;;;;;;52.50;21.80;;;;;;;;;;6272700;22;20020;-86
2023/03/21 02:57:30;;;;;;;51.42;20.42;;;;;;;;;;6272392;22;20039;-86
2023/03/21 03:00:11;;;;;;;57.03;21.40;;;;;;;;;;6271917;22;20062;-86
2023/03/21 03:02:45;;;;;;;53.58;22.02;;;;;;;;;;6246237;22;20032;-86
2023/03/21 03:05:16;;;;;;;51.92;21.13;;;;;;;;;;6270298;22;20138;-85
2023/03/21 03:07:47;;;;;;;52.17;21.48;;;;;;;;;;6270216;22;20020;-86
2023/03/21 03:10:19;;;;;;;47.20;20.67;;;;;;;;;;6269164;22;20523;-86
2023/03/21 03:12:45;;;;;;;51.47;21.63;;;;;;;;;;6271863;22;20068;-86
2023/03/21 03:15:17;;;;;;;50.15;21.02;;;;;;;;;;6273452;22;20030;-86
2023/03/21 03:17:47;;;;;;;50.80;21.02;;;;;;;;;;6271795;22;20516;-86
2023/03/21 03:20:27;;;;;;;56.42;21.75;;;;;;;;;;6241904;22;20020;-86
2023/03/21 03:22:56;;;;;;;51.53;21.38;;;;;;;;;;6270248;22;20024;-86
2023/03/21 03:25:26;;;;;;;53.38;21.50;;;;;;;;;;6274005;22;20086;-86
2023/03/21 03:28:08;;;;;;;57.85;22.17;;;;;;;;;;6237294;22;20028;-86
2023/03/21 03:30:35;;;;;;;54.65;23.08;;;;;;;;;;6239500;22;20032;-86
2023/03/21 03:33:15;;;;;;;55.58;21.75;;;;;;;;;;6237346;22;20021;-87
2023/03/21 03:35:43;;;;;;;53.95;21.77;;;;;;;;;;6236722;22;20128;-87
2023/03/21 03:38:13;;;;;;;47.95;21.10;;;;;;;;;;6236531;22;20029;-87
2023/03/21 03:40:41;;;;;;;53.83;22.00;;;;;;;;;;6235129;22;20093;-87
2023/03/21 03:43:12;;;;;;;56.03;21.02;;;;;;;;;;6233283;22;20567;-88
2023/03/21 03:45:45;;;;;;;58.17;21.30;;;;;;;;;;6234295;22;20032;-87
2023/03/21 03:48:16;;;;;;;61.53;21.98;;;;;;;;;;6236722;22;20047;-87
2023/03/21 03:50:49;;;;;;;58.28;22.85;;;;;;;;;;6210183;22;20013;-87
2023/03/21 03:53:21;;;;;;;58.13;22.02;;;;;;;;;;6208746;22;20343;-86
2023/03/21 03:55:48;;;;;;;53.53;20.25;;;;;;;;;;6236864;22;20021;-87
2023/03/21 03:58:18;;;;;;;55.05;21.45;;;;;;;;;;6208826;22;20098;-87
2023/03/21 04:00:52;;;;;;;54.50;22.30;;;;;;;;;;6236186;22;20877;-87
2023/03/21 04:03:18;;;;;;;48.83;20.67;;;;;;;;;;6236869;22;20024;-87
2023/03/21 04:05:45;;;;;;;50.70;19.63;;;;;;;;;;6239246;22;20056;-86
2023/03/21 04:08:15;;;;;;;49.88;20.48;;;;;;;;;;6240192;22;20076;-87
2023/03/21 04:10:42;;;;;;;56.10;21.10;;;;;;;;;;6239040;22;20029;-87
2023/03/21 04:13:08;;;;;;;56.67;19.67;;;;;;;;;;6239309;22;20115;-87
2023/03/21 04:15:35;;;;;;;52.22;20.20;;;;;;;;;;6238316;22;20021;-87
2023/03/21 04:18:01;;;;;;;48.63;20.42;;;;;;;;;;6238648;22;20079;-87
2023/03/21 04:20:28;;;;;;;51.65;19.95;;;;;;;;;;6238009;22;20103;-87
2023/03/21 04:23:02;;;;;;;54.33;21.15;;;;;;;;;;6212674;22;20028;-87
2023/03/21 04:25:29;;;;;;;52.80;19.95;;;;;;;;;;6212001;22;20036;-87
2023/03/21 04:27:59;;;;;;;54.05;19.98;;;;;;;;;;6219815;22;1080992;-87
2023/03/21 04:30:26;;;;;;;55.38;20.33;;;;;;;;;;6272071;22;20034;-87
2023/03/21 04:32:59;;;;;;;53.47;21.48;;;;;;;;;;6270465;22;20055;-87
2023/03/21 04:35:27;;;;;;;58.15;20.98;;;;;;;;;;6270703;22;20012;-86
2023/03/21 04:37:54;;;;;;;47.70;20.88;;;;;;;;;;6273818;22;20034;-90
2023/03/21 04:40:20;;;;;;;50.92;19.95;;;;;;;;;;6275434;22;20020;-88
2023/03/21 04:42:47;;;;;;;49.40;20.35;;;;;;;;;;6274337;22;20024;-86
2023/03/21 04:45:14;;;;;;;45.10;18.90;;;;;;;;;;6276393;22;20106;-89
2023/03/21 04:47:41;;;;;;;46.30;18.90;;;;;;;;;;6272157;22;20024;-87
2023/03/21 04:50:08;;;;;;;41.22;17.77;;;;;;;;;;6274968;22;20587;-86
2023/03/21 04:52:35;;;;;;;42.60;18.67;;;;;;;;;;6275517;22;20031;-87
2023/03/21 04:55:02;;;;;;;47.50;17.83;;;;;;;;;;6274272;22;20024;-84
2023/03/21 04:57:28;;;;;;;42.63;17.23;;;;;;;;;;6274913;22;20035;-88
2023/03/21 04:59:55;;;;;;;44.72;16.63;;;;;;;;;;6273013;22;20032;-86
2023/03/21 05:02:21;;;;;;;39.00;15.73;;;;;;;;;;6275623;22;20076;-87
2023/03/21 05:04:47;;;;;;;39.03;15.52;;;;;;;;;;6274847;22;20096;-86
2023/03/21 05:07:14;;;;;;;37.75;14.73;;;;;;;;;;6273846;22;20031;-87
2023/03/21 05:09:40;;;;;;;36.00;15.27;;;;;;;;;;6275722;22;20100;-87
2023/03/21 05:12:08;;;;;;;31.95;13.63;;;;;;;;;;6276268;22;20036;-87
2023/03/21 05:14:35;;;;;;;36.58;14.20;;;;;;;;;;6280791;22;20020;-88
2023/03/21 05:17:04;;;;;;;32.10;13.35;;;;;;;;;;6273214;22;20032;-89
2023/03/21 05:19:33;;;;;;;27.45;12.98;;;;;;;;;;6270889;22;20012;-87
2023/03/21 05:22:03;;;;;;;35.92;13.73;;;;;;;;;;6274875;22;20095;-87
2023/03/21 05:24:30;;;;;;;37.85;13.45;;;;;;;;;;6273651;22;20024;-88
2023/03/21 05:27:00;;;;;;;32.35;13.45;;;;;;;;;;6274080;22;20024;-86
2023/03/21 05:29:27;;;;;;;29.27;13.18;;;;;;;;;;6247184;22;20052;-88
2023/03/21 05:31:54;;;;;;;33.53;12.93;;;;;;;;;;6275132;22;20024;-90
2023/03/21 05:34:21;;;;;;;34.08;12.73;;;;;;;;;;6274638;22;20461;-87
2023/03/21 05:36:47;;;;;;;34.85;13.60;;;;;;;;;;6273126;22;20027;-87
2023/03/21 05:39:13;;;;;;;35.47;13.65;;;;;;;;;;6246071;22;20025;-86
2023/03/21 05:41:40;;;;;;;32.67;13.02;;;;;;;;;;6274109;22;20495;-89
2023/03/21 05:44:06;;;;;;;38.25;13.63;;;;;;;;;;6272313;22;20060;-86
2023/03/21 05:46:33;;;;;;;29.17;12.88;;;;;;;;;;6273580;22;20016;-91
2023/03/21 05:48:59;;;;;;;33.53;13.57;;;;;;;;;;6273479;22;20028;-88
2023/03/21 05:51:26;;;;;;;32.28;12.70;;;;;;;;;;6273897;22;20472;-88
2023/03/21 05:53:52;;;;;;;32.55;13.00;;;;;;;;;;6274416;22;20028;-86
2023/03/21 05:56:19;;;;;;;27.58;12.35;;;;;;;;;;6245807;22;20020;-86
2023/03/21 05:58:45;;;;;;;30.25;11.95;;;;;;;;;;6247102;22;20103;-89
2023/03/21 06:01:11;;;;;;;33.25;12.23;;;;;;;;;;6275951;22;20074;-89
2023/03/21 06:03:38;;;;;;;31.75;12.93;;;;;;;;;;6249111;22;20079;-87
2023/03/21 06:06:05;;;;;;;33.30;12.45;;;;;;;;;;6274185;22;20031;-86
2023/03/21 06:08:32;;;;;;;28.63;12.30;;;;;;;;;;6272613;22;20865;-87
2023/03/21 06:10:58;;;;;;;29.75;11.73;;;;;;;;;;6270639;22;20536;-88
2023/03/21 06:13:24;;;;;;;32.53;12.30;;;;;;;;;;6266003;22;20024;-90
2023/03/21 06:15:51;;;;;;;34.03;12.38;;;;;;;;;;6268580;22;20499;-85
2023/03/21 06:18:17;;;;;;;28.50;12.32;;;;;;;;;;6268758;22;21015;-88
2023/03/21 06:20:44;;;;;;;29.08;11.48;;;;;;;;;;6267908;22;20491;-87
2023/03/21 06:23:10;;;;;;;26.73;11.50;;;;;;;;;;6271378;22;20028;-87
2023/03/21 06:25:37;;;;;;;30.52;12.07;;;;;;;;;;6271933;22;20020;-87
2023/03/21 06:28:04;;;;;;;28.73;11.85;;;;;;;;;;6267628;22;20024;-89
2023/03/21 06:30:30;;;;;;;33.17;11.65;;;;;;;;;;6268278;22;20054;-85
2023/03/21 06:32:57;;;;;;;27.90;11.32;;;;;;;;;;6267928;22;20035;-86
2023/03/21 06:35:23;;;;;;;36.08;10.90;;;;;;;;;;6268348;22;21165;-87
2023/03/21 06:37:49;;;;;;;27.35;11.07;;;;;;;;;;6271107;22;20083;-90
2023/03/21 06:40:16;;;;;;;26.80;11.23;;;;;;;;;;6271033;22;20028;-90
2023/03/21 06:42:42;;;;;;;23.00;10.98;;;;;;;;;;6272332;22;20414;-87
2023/03/21 06:45:09;;;;;;;30.42;11.55;;;;;;;;;;6272648;22;20062;-87
2023/03/21 06:47:35;;;;;;;26.55;12.00;;;;;;;;;;6271613;22;20036;-88
2023/03/21 06:50:02;;;;;;;25.08;11.52;;;;;;;;;;6273788;22;20082;-87
2023/03/21 06:52:28;;;;;;;25.77;10.60;;;;;;;;;;6273283;22;20078;-87
2023/03/21 06:54:55;;;;;;;26.00;10.23;;;;;;;;;;6272992;22;20078;-89
2023/03/21 06:57:21;;;;;;;30.48;10.63;;;;;;;;;;6267501;22;20024;-90
2023/03/21 06:59:47;;;;;;;27.40;10.60;;;;;;;;;;6267229;22;20095;-88
2023/03/21 07:02:14;;;;;;;27.40;11.57;;;;;;;;;;6268015;22;20028;-88
2023/03/21 07:04:41;;;;;;;27.02;11.13;;;;;;;;;;6266620;22;20386;-88
2023/03/21 07:07:07;;;;;;;27.52;11.00;;;;;;;;;;6264148;22;20127;-90
2023/03/21 07:09:33;;;;;;;27.92;10.73;;;;;;;;;;6264716;22;20031;-87
2023/03/21 07:12:00;;;;;;;28.77;11.55;;;;;;;;;;6266244;22;20030;-86
2023/03/21 07:14:26;;;;;;;26.55;10.15;;;;;;;;;;6265466;22;20028;-88
2023/03/21 07:16:53;;;;;;;27.58;11.00;;;;;;;;;;6268125;22;20751;-86
2023/03/21 07:19:19;;;;;;;27.42;10.27;;;;;;;;;;6267833;22;20031;-88
2023/03/21 07:21:45;;;;;;;26.15;10.15;;;;;;;;;;6265760;22;20025;-88
2023/03/21 07:24:12;;;;;;;28.15;10.45;;;;;;;;;;6265848;22;20114;-87
2023/03/21 07:26:38;;;;;;;25.42;10.18;;;;;;;;;;6265525;22;20108;-89
2023/03/21 07:29:05;;;;;;;27.73;10.50;;;;;;;;;;6268923;22;20051;-89
2023/03/21 07:31:31;;;;;;;31.65;10.50;;;;;;;;;;6242557;22;20103;-88
2023/03/21 07:33:58;;;;;;;27.85;10.02;;;;;;;;;;6242840;22;20086;-86
2023/03/21 07:36:25;;;;;;;24.77;10.40;;;;;;;;;;6269759;22;20457;-85
2023/03/21 07:38:51;;;;;;;21.40;9.65;;;;;;;;;;6269296;22;20035;-88
2023/03/21 07:41:18;;;;;;;25.45;10.32;;;;;;;;;;6244601;22;20028;-88
2023/03/21 07:43:44;;;;;;;21.85;9.45;;;;;;;;;;6271415;22;20028;-88
2023/03/21 07:46:10;;;;;;;25.67;9.65;;;;;;;;;;6273447;22;20031;-87
2023/03/21 07:48:37;;;;;;;24.27;9.65;;;;;;;;;;6274251;22;20069;-86
2023/03/21 07:51:05;;;;;;;22.67;9.45;;;;;;;;;;6274222;22;20044;-91
2023/03/21 07:53:31;;;;;;;22.20;9.32;;;;;;;;;;6272089;22;20028;-88
2023/03/21 07:55:58;;;;;;;22.05;8.45;;;;;;;;;;6270374;22;20024;-89
2023/03/21 07:58:25;;;;;;;21.98;9.38;;;;;;;;;;6240154;22;20048;-88
2023/03/21 08:00:52;;;;;;;23.67;8.77;;;;;;;;;;6268521;22;20020;-88
2023/03/21 08:03:18;;;;;;;22.20;9.38;;;;;;;;;;6269014;22;20480;-86
2023/03/21 08:05:45;;;;;;;24.73;9.77;;;;;;;;;;6268971;22;20095;-87
2023/03/21 08:08:12;;;;;;;26.00;9.00;;;;;;;;;;6241214;22;20028;-87
2023/03/21 08:10:38;;;;;;;23.42;9.13;;;;;;;;;;6269164;22;20028;-86
2023/03/21 08:13:05;;;;;;;24.65;9.55;;;;;;;;;;6240562;22;20020;-90
2023/03/21 08:15:31;;;;;;;24.20;9.55;;;;;;;;;;6268168;22;20028;-87
2023/03/21 08:17:58;;;;;;;25.23;9.25;;;;;;;;;;6241297;22;20035;-88
2023/03/21 08:20:25;;;;;;;18.63;8.38;;;;;;;;;;6241497;22;20103;-86
2023/03/21 08:22:51;;;;;;;23.08;8.82;;;;;;;;;;6269249;22;20071;-87
2023/03/21 08:25:20;;;;;;;22.25;8.45;;;;;;;;;;6268161;22;20008;-86
2023/03/21 08:27:47;;;;;;;22.75;8.63;;;;;;;;;;6264166;22;20020;-84
2023/03/21 08:30:15;;;;;;;24.38;8.75;;;;;;;;;;6268571;22;20023;-86
2023/03/21 08:32:42;;;;;;;24.75;9.10;;;;;;;;;;6271303;22;20039;-90
2023/03/21 08:35:09;;;;;;;29.58;9.43;;;;;;;;;;6272236;22;20103;-88
2023/03/21 08:37:36;;;;;;;20.65;8.88;;;;;;;;;;6273465;22;20118;-88
2023/03/21 08:40:10;;;;;;;26.98;8.35;;;;;;;;;;6272865;22;20024;-88
2023/03/21 08:42:36;;;;;;;21.10;7.70;;;;;;;;;;6272496;22;20100;-84
2023/03/21 08:45:03;;;;;;;21.48;7.68;;;;;;;;;;6272891;22;20028;-88
2023/03/21 08:47:30;;;;;;;19.88;7.25;;;;;;;;;;6272097;22;20043;-83
2023/03/21 08:49:57;;;;;;;20.92;8.18;;;;;;;;;;6272170;22;20094;-86
2023/03/21 08:52:25;;;;;;;21.55;8.32;;;;;;;;;;6273039;22;20024;-84
2023/03/21 08:54:52;;;;;;;21.88;7.85;;;;;;;;;;6275531;22;20055;-84
2023/03/21 08:57:19;;;;;;;20.25;8.15;;;;;;;;;;6274266;22;20040;-87
2023/03/21 08:59:45;;;;;;;20.63;7.90;;;;;;;;;;6275101;22;20118;-90
2023/03/21 09:02:15;;;;;;;15.65;7.72;;;;;;;;;;6277694;22;20024;-88
2023/03/21 09:04:43;;;;;;;;;;;;;;;;;;6276546;22;20027;-85
2023/03/21 09:07:11;;;;;;;22.48;6.63;;;;;;;;;;6277218;22;44432;-87
2023/03/21 09:09:41;;;;;;;13.55;6.82;;;;;;;;;;6276753;22;20867;-91
2023/03/21 09:12:07;;;;;;;14.90;6.67;;;;;;;;;;6273309;22;20029;-85
2023/03/21 09:14:34;;;;;;;17.23;5.45;;;;;;;;;;6273678;22;20028;-89
2023/03/21 09:17:01;;;;;;;14.95;6.38;;;;;;;;;;6270959;22;20024;-85
2023/03/21 09:19:28;;;;;;;14.98;6.47;;;;;;;;;;6270346;22;20028;-87
2023/03/21 09:21:56;;;;;;;17.15;6.45;;;;;;;;;;6267686;22;20024;-84
2023/03/21 09:24:23;;;;;;;16.50;6.63;;;;;;;;;;6270359;22;20024;-89
2023/03/21 09:26:50;;;;;;;17.02;7.28;;;;;;;;;;6271452;22;20047;-86
2023/03/21 09:29:19;;;;;;;14.43;6.68;;;;;;;;;;6242741;22;20039;-87
2023/03/21 09:31:46;;;;;;;20.92;7.68;;;;;;;;;;6242139;22;20068;-83
2023/03/21 09:34:14;;;;;;;20.67;6.68;;;;;;;;;;6273622;22;20024;-87
2023/03/21 09:36:42;;;;;;;17.98;7.35;;;;;;;;;;6276937;22;20032;-85
2023/03/21 09:39:10;;;;;;;25.45;8.02;;;;;;;;;;6251052;22;20020;-87
2023/03/21 09:41:40;;;;;;;18.95;7.20;;;;;;;;;;6251152;22;20571;-85
2023/03/21 09:44:07;;;;;;;18.93;7.50;;;;;;;;;;6277525;22;20036;-85
2023/03/21 09:46:42;;;;;;;18.33;8.15;;;;;;;;;;6279673;22;20063;-90
2023/03/21 09:49:17;;;;;;;17.90;6.97;;;;;;;;;;6280634;22;20028;-87
2023/03/21 09:51:45;;;;;;;19.80;7.95;;;;;;;;;;6281716;22;20016;-88
2023/03/21 09:54:16;;;;;;;21.08;8.45;;;;;;;;;;6255680;22;20456;-89
2023/03/21 09:56:43;;;;;;;;;;;;;;;;;;6281797;22;20107;-89
2023/03/21 09:59:16;;;;;;;17.33;7.65;;;;;;;;;;6253898;22;45217;-88
2023/03/21 10:01:46;;;;;;;16.40;7.63;;;;;;;;;;6285835;22;20020;-88
2023/03/21 10:04:17;;;;;;;21.23;8.25;;;;;;;;;;6279293;22;20043;-87
2023/03/21 10:06:47;;;;;;;20.35;7.55;;;;;;;;;;6248809;22;20534;-90
2023/03/21 10:09:23;;;;;;;16.98;6.75;;;;;;;;;;6276745;22;20800;-89
2023/03/21 10:11:55;;;;;;;17.73;7.60;;;;;;;;;;6252422;22;20350;-91
2023/03/21 10:14:28;;;;;;;15.35;6.82;;;;;;;;;;6279018;22;20064;-90
2023/03/21 10:16:56;;;;;;;20.48;6.95;;;;;;;;;;6254404;22;20871;-90
2023/03/21 10:19:23;;;;;;;18.08;7.07;;;;;;;;;;6280397;22;20020;-88
2023/03/21 10:21:50;;;;;;;15.95;6.97;;;;;;;;;;6280972;22;20028;-90
2023/03/21 10:24:32;;;;;;;14.52;7.22;;;;;;;;;;6280031;22;20020;-87
2023/03/21 10:27:00;;;;;;;16.05;6.88;;;;;;;;;;6276447;22;20016;-88
2023/03/21 10:29:32;;;;;;;16.00;7.80;;;;;;;;;;6252048;22;20425;-90
2023/03/21 10:31:59;;;;;;;16.08;7.10;;;;;;;;;;6260088;22;20079;-92
2023/03/21 10:34:35;;;;;;;16.48;6.80;;;;;;;;;;6285270;22;20020;-89
2023/03/21 10:37:03;;;;;;;15.10;6.25;;;;;;;;;;6282583;22;20031;-91
2023/03/21 10:39:36;;;;;;;16.50;6.43;;;;;;;;;;6258457;22;20016;-87
2023/03/21 10:42:03;;;;;;;17.63;5.90;;;;;;;;;;6284771;22;20062;-91
2023/03/21 10:44:31;;;;;;;13.95;6.05;;;;;;;;;;6277683;22;20016;-86
2023/03/21 10:47:02;;;;;;;18.23;6.75;;;;;;;;;;6275558;22;20921;-89
2023/03/21 10:49:30;;;;;;;13.15;5.82;;;;;;;;;;6283787;22;20107;-89
2023/03/21 10:52:07;;;;;;;12.35;6.07;;;;;;;;;;6251457;22;20016;-89
2023/03/21 10:54:36;;;;;;;13.85;6.30;;;;;;;;;;6272655;22;20112;-86
2023/03/21 10:57:10;;;;;;;13.95;6.05;;;;;;;;;;6242174;22;20024;-90
2023/03/21 10:59:44;;;;;;;13.82;5.82;;;;;;;;;;6245611;22;20024;-87
2023/03/21 11:02:19;;;;;;;16.40;5.53;;;;;;;;;;6272167;22;20028;-86
2023/03/21 11:04:45;;;;;;;12.82;5.40;;;;;;;;;;6243028;22;20028;-86
2023/03/21 11:07:14;;;;;;;13.32;5.10;;;;;;;;;;6244846;22;20020;-88
2023/03/21 11:09:53;;;;;;;12.25;5.72;;;;;;;;;;6275492;22;20015;-87
2023/03/21 11:12:32;;;;;;;10.43;4.78;;;;;;;;;;6275983;22;20032;-88
2023/03/21 11:15:13;;;;;;;12.30;5.13;;;;;;;;;;6247006;22;20519;-86
2023/03/21 11:17:40;;;;;;;10.40;5.20;;;;;;;;;;6243518;22;20036;-88
2023/03/21 11:20:10;;;;;;;11.35;5.07;;;;;;;;;;6269220;22;20026;-86
2023/03/21 11:22:39;;;;;;;11.55;5.10;;;;;;;;;;6240775;22;20091;-88
2023/03/21 11:25:08;;;;;;;11.15;5.03;;;;;;;;;;6245150;22;20064;-91
2023/03/21 11:27:34;;;;;;;12.35;4.97;;;;;;;;;;6263301;22;20082;-86
2023/03/21 11:30:03;;;;;;;15.45;5.07;;;;;;;;;;6266051;22;20336;-88
2023/03/21 11:32:30;;;;;;;13.48;4.57;;;;;;;;;;6269170;22;20059;-88
2023/03/21 11:34:59;;;;;;;17.63;4.68;;;;;;;;;;6267492;22;20099;-86
2023/03/21 11:37:27;;;;;;;12.05;5.60;;;;;;;;;;6267271;22;20028;-87
2023/03/21 11:39:54;;;;;;;10.00;5.30;;;;;;;;;;6270713;22;20406;-87
2023/03/21 11:42:31;;;;;;;11.88;5.38;;;;;;;;;;6264803;22;20469;-87
2023/03/21 11:45:03;;;;;;;12.93;4.97;;;;;;;;;;6264059;22;20082;-89
2023/03/21 11:47:30;;;;;;;11.35;5.03;;;;;;;;;;6269333;22;20477;-87
2023/03/21 11:49:57;;;;;;;10.60;4.88;;;;;;;;;;6267463;22;20068;-87
2023/03/21 11:52:35;;;;;;;15.02;5.30;;;;;;;;;;6268807;22;20032;-88
2023/03/21 11:55:20;;;;;;;13.38;4.68;;;;;;;;;;6269882;22;20025;-87
2023/03/21 11:57:50;;;;;;;10.25;4.90;;;;;;;;;;6270376;22;20025;-87
2023/03/21 12:00:22;;;;;;;12.13;5.40;;;;;;;;;;6269368;22;20090;-87
2023/03/21 12:03:09;;;;;;;10.55;4.65;;;;;;;;;;6269838;22;20113;-89
2023/03/21 12:05:37;;;;;;;11.35;5.15;;;;;;;;;;6270558;22;20099;-88
2023/03/21 12:08:04;;;;;;;10.65;5.18;;;;;;;;;;6269704;22;20016;-86
2023/03/21 12:10:34;;;;;;;16.92;6.05;;;;;;;;;;6269277;22;20031;-88
2023/03/21 12:13:19;;;;;;;12.48;5.28;;;;;;;;;;6268238;22;20020;-87
2023/03/21 12:15:49;;;;;;;13.93;5.00;;;;;;;;;;6265413;22;20114;-88
2023/03/21 12:18:19;;;;;;;15.30;5.10;;;;;;;;;;6268629;22;20108;-87
2023/03/21 12:20:52;;;;;;;11.63;4.95;;;;;;;;;;6267110;22;20580;-86
2023/03/21 12:23:21;;;;;;;12.18;5.88;;;;;;;;;;6268000;22;20024;-87
2023/03/21 12:25:55;;;;;;;13.37;5.83;;;;;;;;;;6267921;22;20031;-88
2023/03/21 12:28:21;;;;;;;14.35;5.82;;;;;;;;;;6242444;22;20491;-87
2023/03/21 12:31:00;;;;;;;11.18;5.32;;;;;;;;;;6271813;22;20618;-88
2023/03/21 12:33:36;;;;;;;10.23;5.30;;;;;;;;;;6271389;22;20548;-87
2023/03/21 12:36:09;;;;;;;12.15;5.13;;;;;;;;;;6244760;22;20059;-88
2023/03/21 12:38:42;;;;;;;11.10;5.43;;;;;;;;;;6243408;22;20155;-87
2023/03/21 12:41:20;;;;;;;12.30;6.07;;;;;;;;;;6270474;22;20031;-88
2023/03/21 12:43:52;;;;;;;14.07;6.30;;;;;;;;;;6269194;22;20548;-88
2023/03/21 12:46:33;;;;;;;13.02;5.72;;;;;;;;;;6267915;22;20503;-87
2023/03/21 12:49:01;;;;;;;12.82;5.30;;;;;;;;;;6243173;22;20100;-87
2023/03/21 12:51:31;;;;;;;11.73;6.10;;;;;;;;;;6241166;22;20329;-88
2023/03/21 12:53:59;;;;;;;12.90;6.15;;;;;;;;;;6269936;22;20429;-89
2023/03/21 12:56:35;;;;;;;20.52;7.03;;;;;;;;;;6242706;22;20051;-87
2023/03/21 12:59:07;;;;;;;25.85;11.88;;;;;;;;;;6269711;22;20032;-86
2023/03/21 13:01:35;;;;;;;23.65;10.13;;;;;;;;;;6268261;22;20020;-90
2023/03/21 13:04:06;;;;;;;11.32;6.05;;;;;;;;;;6241082;22;20580;-88
2023/03/21 13:06:34;;;;;;;13.15;5.43;;;;;;;;;;6269926;22;20747;-87
2023/03/21 13:09:30;;;;;;;15.48;5.50;;;;;;;;;;6240566;22;20798;-87
2023/03/21 13:12:07;;;;;;;10.27;5.68;;;;;;;;;;6227356;22;20099;-89
2023/03/21 13:14:37;;;;;;;16.13;5.47;;;;;;;;;;6264572;22;20043;-88
2023/03/21 13:17:13;;;;;;;15.93;6.25;;;;;;;;;;6239740;22;20028;-88
2023/03/21 13:19:44;;;;;;;12.13;5.95;;;;;;;;;;6265545;22;20445;-89
2023/03/21 13:22:20;;;;;;;11.70;5.72;;;;;;;;;;6236676;22;20028;-88
2023/03/21 13:24:48;;;;;;;9.25;5.50;;;;;;;;;;6266206;22;20028;-88
2023/03/21 13:27:20;;;;;;;14.30;6.70;;;;;;;;;;6265844;22;20491;-89
2023/03/21 13:29:49;;;;;;;12.70;6.15;;;;;;;;;;6268006;22;20024;-88
2023/03/21 13:32:28;;;;;;;13.18;6.00;;;;;;;;;;6267638;22;20446;-87
2023/03/21 13:34:56;;;;;;;11.93;6.85;;;;;;;;;;6239890;22;20036;-88
2023/03/21 13:37:25;;;;;;;12.52;5.55;;;;;;;;;;6268165;22;20099;-89
2023/03/21 13:39:52;;;;;;;14.57;6.97;;;;;;;;;;6243714;22;20020;-88
2023/03/21 13:42:22;;;;;;;12.07;5.95;;;;;;;;;;6239497;22;20020;-88
2023/03/21 13:44:52;;;;;;;15.70;6.35;;;;;;;;;;6264623;22;20106;-88
2023/03/21 13:47:42;;;;;;;11.52;5.85;;;;;;;;;;6266285;22;20502;-87
2023/03/21 13:50:17;;;;;;;12.45;6.22;;;;;;;;;;6245591;22;20758;-87
2023/03/21 13:53:04;;;;;;;12.73;6.53;;;;;;;;;;6264963;22;20110;-87
2023/03/21 13:55:40;;;;;;;8.93;5.65;;;;;;;;;;6266200;22;20033;-88
2023/03/21 13:58:25;;;;;;;10.88;5.85;;;;;;;;;;6238636;22;20024;-88
2023/03/21 14:01:11;;;;;;;13.73;7.68;;;;;;;;;;6265837;22;20501;-87
2023/03/21 14:03:38;;;;;;;12.15;6.57;;;;;;;;;;6237397;22;20108;-87
2023/03/21 14:06:05;;;;;;;11.68;6.07;;;;;;;;;;6265075;22;20070;-87
2023/03/21 14:08:34;;;;;;;13.40;6.13;;;;;;;;;;6238053;22;20111;-87
2023/03/21 14:11:05;;;;;;;11.13;6.20;;;;;;;;;;6239800;22;20020;-88
2023/03/21 14:13:31;;;;;;;10.38;5.97;;;;;;;;;;6264440;22;20560;-88
2023/03/21 14:16:06;;;;;;;10.88;6.60;;;;;;;;;;6266140;22;20032;-87
2023/03/21 14:18:39;;;;;;;14.13;6.73;;;;;;;;;;6266567;22;20047;-87
2023/03/21 14:21:23;;;;;;;15.05;7.32;;;;;;;;;;6265945;22;20024;-88
2023/03/21 14:23:57;;;;;;;11.65;7.00;;;;;;;;;;6265279;22;20032;-89
2023/03/21 14:26:24;;;;;;;10.70;6.22;;;;;;;;;;6265675;22;20026;-88
2023/03/21 14:28:51;;;;;;;13.13;7.20;;;;;;;;;;6240192;22;20428;-86
2023/03/21 14:31:18;;;;;;;11.30;6.03;;;;;;;;;;6268273;22;20020;-86
2023/03/21 14:33:48;;;;;;;15.57;6.45;;;;;;;;;;6267329;22;20056;-86
2023/03/21 14:36:19;;;;;;;14.55;6.25;;;;;;;;;;6240562;22;20805;-87
2023/03/21 14:38:54;;;;;;;14.68;6.25;;;;;;;;;;6240472;22;20077;-87
2023/03/21 14:41:22;;;;;;;12.77;5.70;;;;;;;;;;6240070;22;20030;-87